Twin Cities, Minnesota
Current Conditions -  °F | °C
As of 6:53 PM on Friday 24 Oct 2014 (Local Time) from KMSP Reporting Station
Broken Clouds Broken Clouds  
Wind Chill: 64°   Ceiling: 25000
Heat Index: 64°   Visibility: 9mi
Dew Point: 53°   Wind: 3mph
Humidity: 67%   Direction: 200°SSW
Pressure: 29.85"   Gusts: NA
Location:  44.8695°N, 93.2126°W
Report Text: KMSP 242353Z 20003KT 9SM BKN250 18/12 A2985 RMK AO2 SLP109 T01780117 10194 20167 51006
Loading
Personal Weather Stations






























Interactive Weather Map
Tropical Storm Tracking
New forecast layout! Learn more

10-Day Weather Forecast

Advertisements
Track Severe Weather on mobile